Time;durP1;ratioP1;P1;durP2;ratioP2;P2;SDS_P1;SDS_P2;PMS_P1;PMS_P2;Temp;Humidity;BMP_temperature;BMP_pressure;BME280_temperature;BME280_humidity;BME280_pressure;Samples;Min_cycle;Max_cycle;Signal;HPM_P1;HPM_P2
2022/05/13 00:00:33;;;;;;;25.70;5.03;;;;;;;10.46;99.50;101031.78;5046332;28;20029;-86
2022/05/13 00:02:59;;;;;;;29.75;4.85;;;;;;;10.55;100.00;101046.91;5042941;28;20037;-80
2022/05/13 00:05:24;;;;;;;33.83;6.38;;;;;;;10.59;100.00;101049.28;5036598;28;20044;-82
2022/05/13 00:07:50;;;;;;;31.02;5.80;;;;;;;10.49;100.00;101026.06;5016586;28;20039;-82
2022/05/13 00:10:16;;;;;;;19.25;4.60;;;;;;;10.42;100.00;101017.00;5039169;28;20588;-85
2022/05/13 00:12:42;;;;;;;32.13;4.93;;;;;;;10.43;100.00;101012.47;5030231;28;20035;-81
2022/05/13 00:15:11;;;;;;;26.90;5.10;;;;;;;10.58;100.00;101032.28;5031990;28;20049;-82
2022/05/13 00:17:37;;;;;;;32.60;7.03;;;;;;;10.25;100.00;100980.34;5035927;28;20037;-85
2022/05/13 00:20:04;;;;;;;26.00;4.78;;;;;;;10.48;100.00;101024.41;5046554;28;20033;-79
2022/05/13 00:22:29;;;;;;;34.67;4.97;;;;;;;10.49;100.00;101025.22;5017958;28;20048;-85
2022/05/13 00:24:55;;;;;;;27.05;4.90;;;;;;;10.50;100.00;101037.66;5027900;28;20033;-83
2022/05/13 00:27:22;;;;;;;22.88;4.35;;;;;;;10.45;100.00;101032.81;5048699;28;20103;-85
2022/05/13 00:29:50;;;;;;;25.95;4.97;;;;;;;10.44;100.00;101033.78;5046546;28;20490;-83
2022/05/13 00:32:19;;;;;;;21.30;3.85;;;;;;;10.36;100.00;101023.03;5049353;28;20056;-83
2022/05/13 00:34:45;;;;;;;38.10;8.05;;;;;;;10.47;100.00;101038.81;5043693;28;20041;-85
2022/05/13 00:37:10;;;;;;;29.23;4.40;;;;;;;10.49;100.00;101044.88;5015838;28;20429;-84
2022/05/13 00:39:36;;;;;;;20.27;4.20;;;;;;;10.47;100.00;101035.31;5013819;28;20036;-80
2022/05/13 00:42:10;;;;;;;42.28;6.22;;;;;;;10.47;100.00;101017.31;5029785;28;20128;-89
2022/05/13 00:44:36;;;;;;;21.38;4.53;;;;;;;10.57;100.00;101035.97;5043184;28;20103;-82
2022/05/13 00:47:03;;;;;;;24.63;4.53;;;;;;;10.54;100.00;101030.94;5050196;28;20360;-84
2022/05/13 00:49:31;;;;;;;29.42;4.45;;;;;;;10.50;100.00;101032.28;5048808;28;20033;-87
2022/05/13 00:51:58;;;;;;;19.85;3.72;;;;;;;10.47;100.00;101022.69;5039715;28;20029;-82
2022/05/13 00:54:24;;;;;;;26.73;4.40;;;;;;;10.56;100.00;101032.47;5042335;28;20569;-86
2022/05/13 00:56:49;;;;;;;25.13;5.53;;;;;;;10.52;100.00;101033.78;5045019;28;20132;-85
2022/05/13 00:59:18;;;;;;;44.00;6.32;;;;;;;10.52;100.00;101031.09;5033722;28;20033;-82
2022/05/13 01:01:44;;;;;;;38.58;5.75;;;;;;;10.59;100.00;101050.09;5052219;28;20517;-86
2022/05/13 01:04:11;;;;;;;20.80;4.20;;;;;;;10.55;100.00;101033.44;5046358;28;20115;-83
2022/05/13 01:06:38;;;;;;;17.85;3.80;;;;;;;10.51;100.00;101025.91;5048137;28;20037;-83
2022/05/13 01:09:04;;;;;;;21.52;4.45;;;;;;;10.48;100.00;101023.56;5031866;28;20037;-87
2022/05/13 01:11:33;;;;;;;26.80;4.85;;;;;;;10.41;100.00;101011.78;5047094;28;20025;-83
2022/05/13 01:14:04;;;;;;;23.60;5.07;;;;;;;10.60;100.00;101024.06;5044781;28;20033;-83
2022/05/13 01:18:04;;;;;;;20.83;4.68;;;;;;;10.56;100.00;101037.84;5043350;28;20110;-83
2022/05/13 01:19:18;;;;;;;33.72;5.35;;;;;;;10.44;100.00;101033.78;5043509;28;20040;-84
2022/05/13 01:21:45;;;;;;;27.80;4.32;;;;;;;10.26;100.00;101006.22;5047682;28;20029;-83
2022/05/13 01:24:11;;;;;;;20.55;5.05;;;;;;;10.23;100.00;101022.69;5044522;28;20035;-88
2022/05/13 01:26:36;;;;;;;20.60;4.70;;;;;;;10.09;100.00;101008.06;5054868;28;20032;-82
2022/05/13 01:29:03;;;;;;;24.25;4.78;;;;;;;10.05;100.00;101007.53;5038506;28;20406;-83
2022/05/13 01:31:34;;;;;;;25.58;5.38;;;;;;;9.99;100.00;101010.88;5049495;28;20040;-83
2022/05/13 01:34:03;;;;;;;22.95;4.25;;;;;;;9.91;100.00;100997.44;5047934;28;20032;-83
2022/05/13 01:36:29;;;;;;;22.52;4.65;;;;;;;9.88;100.00;101016.59;5052163;28;20024;-82
2022/05/13 01:38:55;;;;;;;30.15;5.15;;;;;;;9.80;100.00;100997.78;5050720;28;20040;-85
2022/05/13 01:41:22;;;;;;;24.15;4.38;;;;;;;9.79;100.00;101012.19;5047287;28;20021;-83
2022/05/13 01:43:49;;;;;;;15.32;4.05;;;;;;;9.74;100.00;101001.97;5025945;28;20047;-87
2022/05/13 01:46:15;;;;;;;15.45;4.30;;;;;;;9.68;100.00;100986.50;5040189;28;20308;-84
2022/05/13 01:48:41;;;;;;;33.88;6.32;;;;;;;9.76;100.00;100996.41;5045524;28;20071;-83
2022/05/13 01:51:07;;;;;;;24.80;5.53;;;;;;;9.69;100.00;100980.13;5036276;28;20072;-84
2022/05/13 01:53:33;;;;;;;25.38;5.03;;;;;;;9.85;100.00;100998.97;5031081;28;20544;-83
2022/05/13 01:55:59;;;;;;;27.38;5.07;;;;;;;9.84;100.00;100989.22;5048984;28;20482;-81
2022/05/13 01:58:25;;;;;;;23.58;4.53;;;;;;;9.76;100.00;100983.81;5047966;28;20029;-81
2022/05/13 02:00:53;;;;;;;39.90;5.78;;;;;;;9.84;100.00;100997.28;5016246;28;20059;-84
2022/05/13 02:06:04;;;;;;;26.42;6.07;;;;;;;9.76;100.00;100993.72;5049195;28;20058;-82
2022/05/13 02:08:31;;;;;;;30.17;6.20;;;;;;;9.78;100.00;100987.19;5030929;28;20479;-83
2022/05/13 02:10:57;;;;;;;28.13;5.55;;;;;;;9.87;100.00;100988.91;5049268;28;20044;-81
2022/05/13 02:13:22;;;;;;;32.55;5.10;;;;;;;9.63;100.00;100968.22;5033953;28;20033;-83
2022/05/13 02:15:48;;;;;;;46.53;6.43;;;;;;;9.76;100.00;100991.03;5050981;28;20037;-82
2022/05/13 02:18:16;;;;;;;33.75;6.68;;;;;;;9.74;100.00;100999.28;5044216;28;20028;-83
2022/05/13 02:20:42;;;;;;;32.88;6.88;;;;;;;9.62;100.00;100981.78;5051507;28;20028;-86
2022/05/13 02:23:08;;;;;;;29.27;6.85;;;;;;;9.68;100.00;100987.34;5032505;28;20394;-85
2022/05/13 02:25:34;;;;;;;38.92;6.03;;;;;;;9.73;100.00;100991.38;5049726;28;20037;-85
2022/05/13 02:28:00;;;;;;;23.20;4.80;;;;;;;9.85;100.00;100984.69;5052456;28;20354;-84
2022/05/13 02:30:28;;;;;;;35.55;5.10;;;;;;;9.83;100.00;100966.03;5055523;28;20100;-87
2022/05/13 02:32:54;;;;;;;33.80;7.20;;;;;;;9.91;100.00;100974.13;5049799;28;20249;-86
2022/05/13 02:35:20;;;;;;;30.50;5.50;;;;;;;10.11;100.00;100990.75;5047804;28;20025;-87
2022/05/13 02:37:46;;;;;;;23.05;5.55;;;;;;;10.16;100.00;100986.72;5023209;28;20410;-84
2022/05/13 02:40:12;;;;;;;17.05;4.05;;;;;;;10.17;100.00;100972.28;5049015;28;20037;-85
2022/05/13 02:42:38;;;;;;;32.90;6.05;;;;;;;10.30;100.00;100975.34;5033800;28;20033;-87
2022/05/13 02:45:05;;;;;;;29.27;5.40;;;;;;;10.38;100.00;100986.09;5045210;28;20095;-83
2022/05/13 02:47:31;;;;;;;35.47;6.10;;;;;;;10.40;100.00;100986.78;5064783;28;20109;-83
2022/05/13 02:52:40;;;;;;;25.40;5.05;;;;;;;10.27;100.00;100970.28;5052296;28;20122;-85
2022/05/13 02:55:14;;;;;;;26.23;4.88;;;;;;;10.33;100.00;100973.16;5043461;28;20422;-83
2022/05/13 02:57:46;;;;;;;22.33;4.28;;;;;;;10.39;100.00;100971.63;5050840;28;20033;-86
2022/05/13 03:00:12;;;;;;;22.75;4.90;;;;;;;10.43;100.00;100972.16;5026812;28;20047;-82
2022/05/13 03:02:38;;;;;;;50.13;6.70;;;;;;;10.61;100.00;100988.06;5042857;28;20108;-82
2022/05/13 03:05:05;;;;;;;25.17;5.40;;;;;;;10.57;100.00;100968.75;5051121;28;20505;-81
2022/05/13 03:07:31;;;;;;;29.88;5.20;;;;;;;10.68;99.94;100986.38;5030252;28;20029;-85
2022/05/13 03:09:56;;;;;;;25.40;4.95;;;;;;;10.65;99.92;100992.94;5046835;28;20037;-83
2022/05/13 03:12:22;;;;;;;23.95;5.78;;;;;;;10.50;100.00;100962.38;5017500;28;20371;-82
2022/05/13 03:14:48;;;;;;;37.72;5.65;;;;;;;10.58;100.00;100986.56;5052558;28;20382;-79
2022/05/13 03:17:13;;;;;;;22.05;4.65;;;;;;;10.52;99.96;100977.31;5054172;28;20029;-81
2022/05/13 03:19:40;;;;;;;29.48;6.95;;;;;;;10.54;100.00;100986.06;5033822;28;21190;-83
2022/05/13 03:22:06;;;;;;;25.30;4.85;;;;;;;10.56;100.00;100976.00;5051968;28;20075;-80
2022/05/13 03:24:32;;;;;;;20.95;3.60;;;;;;;10.55;100.00;100985.06;5052558;28;20040;-86
2022/05/13 03:26:58;;;;;;;25.20;5.43;;;;;;;10.57;100.00;100980.34;5059276;28;20036;-81
2022/05/13 03:29:25;;;;;;;32.80;4.40;;;;;;;10.63;99.81;100989.59;5048874;28;20022;-79
2022/05/13 03:31:50;;;;;;;18.58;4.53;;;;;;;10.65;99.79;100995.63;5055830;28;20036;-81
2022/05/13 03:34:16;;;;;;;32.30;6.10;;;;;;;10.65;99.16;100990.25;5076040;28;20067;-78
2022/05/13 03:36:44;;;;;;;18.20;4.20;;;;;;;10.71;98.67;100997.63;5071267;28;20048;-78
2022/05/13 03:39:10;;;;;;;23.85;4.93;;;;;;;10.65;98.33;100982.19;5071994;28;20017;-79
2022/05/13 03:41:35;;;;;;;12.45;3.72;;;;;;;10.74;97.45;100985.69;5057156;28;20029;-81
2022/05/13 03:44:01;;;;;;;30.02;4.70;;;;;;;10.75;97.69;101004.34;5021131;28;20037;-83
2022/05/13 03:46:26;;;;;;;21.42;4.70;;;;;;;10.69;97.60;100988.91;5062354;28;20115;-83
2022/05/13 03:48:55;;;;;;;32.83;5.65;;;;;;;10.71;97.57;100991.41;5049140;28;20047;-81
2022/05/13 03:51:22;;;;;;;33.50;6.22;;;;;;;10.65;97.53;100973.28;5076853;28;20025;-83
2022/05/13 03:53:47;;;;;;;31.15;5.30;;;;;;;10.71;97.36;100983.34;5054234;28;20265;-79
2022/05/13 03:56:13;;;;;;;27.25;6.38;;;;;;;10.68;97.01;100979.16;5060679;28;20033;-84
2022/05/13 03:58:39;;;;;;;30.75;4.80;;;;;;;10.68;96.60;100979.16;5015095;28;20029;-84
2022/05/13 04:01:05;;;;;;;33.47;5.88;;;;;;;10.80;96.64;100995.78;5033684;28;20036;-85
2022/05/13 04:03:33;;;;;;;24.50;5.95;;;;;;;10.78;97.18;100984.34;5007157;28;20060;-85
2022/05/13 04:08:57;;;;;;;35.20;6.47;;;;;;;10.65;97.54;100960.69;5028756;28;20124;-84
2022/05/13 04:11:31;;;;;;;29.58;5.70;;;;;;;10.81;97.18;100986.69;5043779;28;20021;-84
2022/05/13 04:16:41;;;;;;;39.60;7.03;;;;;;;10.85;95.79;100963.84;5036923;28;20025;-81
2022/05/13 04:19:07;;;;;;;29.88;5.80;;;;;;;10.84;95.80;100986.34;5044618;28;20035;-84
2022/05/13 04:21:37;;;;;;;18.42;4.75;;;;;;;10.94;95.31;100976.22;5058987;28;20028;-84
2022/05/13 04:24:07;;;;;;;36.38;6.70;;;;;;;10.93;95.67;100981.81;5048340;28;20025;-88
2022/05/13 04:26:35;;;;;;;38.42;7.70;;;;;;;10.87;95.81;100969.03;5034178;28;20028;-83
2022/05/13 04:29:02;;;;;;;29.52;5.85;;;;;;;10.58;96.63;100938.16;5044939;28;20036;-82
2022/05/13 04:31:30;;;;;;;38.63;8.15;;;;;;;10.79;97.26;100992.22;5056178;28;20036;-85
2022/05/13 04:33:56;;;;;;;24.10;5.05;;;;;;;10.73;97.43;100984.03;5020212;28;20037;-87
2022/05/13 04:36:23;;;;;;;21.23;4.88;;;;;;;10.74;96.62;100985.69;5042241;28;20029;-85
2022/05/13 04:38:49;;;;;;;42.67;7.07;;;;;;;10.64;95.36;100968.91;5043238;28;20071;-81
2022/05/13 04:44:00;;;;;;;21.98;5.22;;;;;;;10.79;93.85;100976.09;5047853;28;20037;-81
2022/05/13 04:46:26;;;;;;;47.88;9.10;;;;;;;10.79;94.06;100972.56;5049679;28;20032;-81
2022/05/13 04:48:53;;;;;;;36.40;5.85;;;;;;;10.66;94.91;100967.72;5028045;28;20145;-82
2022/05/13 04:51:20;;;;;;;31.77;5.93;;;;;;;10.66;95.98;100981.16;5059240;28;20025;-85
2022/05/13 04:53:47;;;;;;;30.15;6.05;;;;;;;10.65;96.73;100984.88;5032128;28;20124;-84
2022/05/13 04:56:13;;;;;;;26.40;6.13;;;;;;;10.71;96.84;100992.25;5046598;28;20538;-87
2022/05/13 04:58:39;;;;;;;56.20;7.55;;;;;;;10.71;96.60;100986.88;5047611;28;20108;-84
2022/05/13 05:01:07;;;;;;;47.70;8.02;;;;;;;10.78;96.98;100981.66;5051179;28;20110;-82
2022/05/13 05:03:33;;;;;;;44.38;6.15;;;;;;;10.88;96.70;100982.31;5047850;28;20032;-79
2022/05/13 05:05:59;;;;;;;25.10;6.75;;;;;;;10.75;96.98;100960.50;5047889;28;20032;-84
2022/05/13 05:08:25;;;;;;;37.92;7.20;;;;;;;11.00;96.06;100972.84;5027789;28;20029;-81
2022/05/13 05:10:51;;;;;;;22.40;5.95;;;;;;;11.03;94.88;100974.34;5053838;28;20468;-82
2022/05/13 05:13:21;;;;;;;29.80;5.90;;;;;;;11.04;93.98;100975.22;5032642;28;20029;-80
2022/05/13 05:15:47;;;;;;;47.42;7.82;;;;;;;10.99;93.98;100971.19;5054714;28;20039;-85
2022/05/13 05:18:13;;;;;;;35.33;7.40;;;;;;;10.98;94.44;100972.19;5026752;28;20025;-84
2022/05/13 05:20:39;;;;;;;31.52;6.22;;;;;;;10.98;94.82;100964.13;5030308;28;20033;-84
2022/05/13 05:23:05;;;;;;;36.92;8.25;;;;;;;10.98;94.70;100976.72;5046775;28;20450;-85
2022/05/13 05:25:31;;;;;;;40.70;8.05;;;;;;;11.06;94.06;100975.84;5008813;28;20029;-86
2022/05/13 05:27:57;;;;;;;28.02;5.55;;;;;;;11.08;94.60;100987.28;5020043;28;22138;-80
2022/05/13 05:30:24;;;;;;;39.55;7.88;;;;;;;11.14;94.27;100981.19;5042295;28;20138;-81
2022/05/13 05:32:50;;;;;;;46.92;8.48;;;;;;;11.18;94.66;100977.16;5043425;28;20472;-81
2022/05/13 05:35:17;;;;;;;35.75;6.80;;;;;;;11.16;94.24;100976.50;5042253;28;20045;-82
2022/05/13 05:37:43;;;;;;;33.35;8.43;;;;;;;11.21;93.81;100979.50;5043070;28;20075;-82
2022/05/13 05:40:10;;;;;;;22.65;5.82;;;;;;;11.31;92.33;100982.81;5024194;28;20060;-86
2022/05/13 05:42:37;;;;;;;32.53;7.35;;;;;;;11.35;92.19;100986.84;5042760;28;20021;-82
2022/05/13 05:45:03;;;;;;;35.60;8.07;;;;;;;11.37;92.25;100990.19;5050977;28;20037;-85
2022/05/13 05:47:29;;;;;;;26.33;5.80;;;;;;;11.40;91.64;100989.84;5042892;28;20865;-81
2022/05/13 05:49:54;;;;;;;41.47;7.47;;;;;;;11.37;91.87;100986.66;5023697;28;20043;-80
2022/05/13 05:52:20;;;;;;;25.17;5.65;;;;;;;11.34;91.94;100984.34;5043217;28;21022;-84
2022/05/13 05:57:30;;;;;;;36.42;6.72;;;;;;;11.41;91.83;100972.69;5043169;28;20147;-81
2022/05/13 05:59:55;;;;;;;62.03;9.10;;;;;;;11.47;92.24;100983.78;5042381;28;20087;-83
2022/05/13 06:02:21;;;;;;;33.47;6.75;;;;;;;11.39;92.73;100981.94;5041780;28;20712;-83
2022/05/13 06:04:46;;;;;;;38.50;10.50;;;;;;;11.39;92.99;100980.09;5024460;28;20087;-87
2022/05/13 06:07:14;;;;;;;21.13;5.07;;;;;;;11.29;92.51;100957.09;5041875;28;20271;-87
2022/05/13 06:09:41;;;;;;;26.70;6.88;;;;;;;11.49;92.06;100979.88;5026835;28;20036;-84
2022/05/13 06:12:09;;;;;;;34.13;6.38;;;;;;;11.56;91.57;100982.69;5041470;28;20036;-82
2022/05/13 06:14:35;;;;;;;38.90;8.02;;;;;;;11.61;91.48;100988.38;5045821;28;20029;-82
2022/05/13 06:17:01;;;;;;;49.72;7.55;;;;;;;11.56;91.64;100974.63;5032781;28;20518;-81
2022/05/13 06:19:27;;;;;;;41.70;7.47;;;;;;;11.59;91.70;100968.88;5048037;28;20037;-80
2022/05/13 06:21:52;;;;;;;32.45;8.43;;;;;;;11.74;91.18;100988.66;5056614;28;20029;-83
2022/05/13 06:24:18;;;;;;;44.47;7.93;;;;;;;11.76;90.63;100981.22;5037988;28;20029;-86
2022/05/13 06:26:48;;;;;;;28.27;7.63;;;;;;;11.82;90.09;100979.69;5042522;28;20067;-85
2022/05/13 06:29:21;;;;;;;29.67;6.43;;;;;;;11.90;89.82;100984.22;5048761;28;20063;-86
2022/05/13 06:31:47;;;;;;;46.33;8.00;;;;;;;11.77;89.83;100953.28;5054144;28;20430;-83
2022/05/13 06:34:14;;;;;;;31.67;7.40;;;;;;;11.93;88.94;100978.47;5043238;28;20029;-82
2022/05/13 06:36:40;;;;;;;23.70;6.47;;;;;;;11.86;89.58;100983.75;5047458;28;20463;-85
2022/05/13 06:39:07;;;;;;;34.58;8.05;;;;;;;11.87;88.97;100980.03;5017609;28;22027;-81
2022/05/13 06:41:37;;;;;;;29.42;6.68;;;;;;;11.91;89.05;100984.03;5050345;28;20051;-84
2022/05/13 06:44:07;;;;;;;18.98;5.20;;;;;;;11.88;89.44;100984.38;5018123;28;20457;-85
2022/05/13 06:46:35;;;;;;;32.08;6.53;;;;;;;12.05;87.35;100977.03;5049998;28;20029;-81
2022/05/13 06:49:04;;;;;;;26.33;5.78;;;;;;;12.09;87.02;100997.19;5034843;28;20143;-86
2022/05/13 06:51:31;;;;;;;28.45;7.00;;;;;;;12.08;87.22;100995.53;5041658;28;20029;-83
2022/05/13 06:53:57;;;;;;;36.78;9.20;;;;;;;12.16;86.50;101006.25;5014627;28;20057;-85
2022/05/13 06:56:23;;;;;;;47.45;9.60;;;;;;;12.15;86.54;101003.75;5047930;28;20036;-86
2022/05/13 06:58:48;;;;;;;37.58;7.30;;;;;;;12.08;87.46;101001.75;5036895;28;20043;-85
2022/05/13 07:01:14;;;;;;;37.85;6.80;;;;;;;12.12;88.01;100998.69;5045158;28;20041;-85
2022/05/13 07:03:40;;;;;;;42.75;8.57;;;;;;;12.16;88.12;101008.94;5050740;28;20239;-85
2022/05/13 07:06:05;;;;;;;28.15;6.43;;;;;;;12.14;88.78;101010.16;5011994;28;20128;-81
2022/05/13 07:08:31;;;;;;;42.08;9.27;;;;;;;12.01;89.21;101010.75;5031333;28;20029;-86
2022/05/13 07:10:57;;;;;;;35.78;5.78;;;;;;;11.83;89.75;100974.13;5031403;28;20033;-86
2022/05/13 07:13:23;;;;;;;48.13;7.78;;;;;;;12.08;89.84;101003.63;5044861;28;20036;-83
2022/05/13 07:15:48;;;;;;;38.33;7.43;;;;;;;12.18;88.87;101020.41;5044165;28;20129;-85
2022/05/13 07:18:14;;;;;;;36.83;7.85;;;;;;;12.26;88.10;101008.72;5045620;28;20032;-82
2022/05/13 07:20:40;;;;;;;43.88;8.80;;;;;;;12.53;85.13;101005.44;5043087;28;20115;-80
2022/05/13 07:23:09;;;;;;;34.33;7.18;;;;;;;12.69;84.42;101017.94;5044027;28;20033;-82
2022/05/13 07:25:35;;;;;;;48.17;8.48;;;;;;;12.89;82.53;101012.84;5013028;28;20112;-81
2022/05/13 07:28:03;;;;;;;31.23;6.22;;;;;;;13.13;81.20;101019.84;5045909;28;20028;-81
2022/05/13 07:30:29;;;;;;;36.33;7.30;;;;;;;13.48;79.11;101008.50;5039086;28;20040;-87
2022/05/13 07:33:11;;;;;;;;;;;;;;;;;;;;;
2022/05/13 07:35:43;;;;;;;39.35;7.57;;;;;;;14.41;73.99;101017.59;5039049;28;20040;-80
2022/05/13 07:38:09;;;;;;;33.35;7.22;;;;;;;14.47;73.55;101017.66;5029953;28;20029;-81
2022/05/13 07:43:22;;;;;;;21.75;3.92;;;;;;;14.33;75.32;101026.66;5041299;28;20033;-82
2022/05/13 07:45:48;;;;;;;42.65;6.35;;;;;;;14.01;76.33;100992.88;5041936;28;20029;-79
2022/05/13 07:48:14;;;;;;;41.33;7.00;;;;;;;14.16;77.05;101033.38;5039550;28;20028;-85
2022/05/13 07:50:39;;;;;;;41.35;6.63;;;;;;;14.14;77.60;101030.03;5040169;28;20072;-82
2022/05/13 07:53:05;;;;;;;39.70;7.00;;;;;;;14.07;78.03;101025.38;5032676;28;20041;-82
2022/05/13 07:55:31;;;;;;;34.92;7.53;;;;;;;14.22;77.75;101027.19;5048872;28;20051;-80
2022/05/13 07:57:57;;;;;;;37.58;7.70;;;;;;;14.64;75.04;101041.75;5042921;28;20136;-83
2022/05/13 08:00:27;;;;;;;46.83;11.10;;;;;;;14.69;75.41;101039.31;5041803;28;20546;-83
2022/05/13 08:03:02;;;;;;;34.67;7.28;;;;;;;14.77;74.66;101039.16;5036599;28;20456;-84
2022/05/13 08:05:31;;;;;;;35.33;8.48;;;;;;;14.70;73.77;101040.97;5029161;28;20508;-83
2022/05/13 08:08:02;;;;;;;26.35;6.57;;;;;;;14.96;72.55;101032.19;5042756;28;20037;-81
2022/05/13 08:10:28;;;;;;;25.45;5.80;;;;;;;15.38;70.10;101052.88;5022798;28;20071;-81
2022/05/13 08:12:53;;;;;;;39.55;8.00;;;;;;;15.51;70.10;101059.41;5042515;28;20045;-83
2022/05/13 08:15:20;;;;;;;34.85;7.72;;;;;;;15.56;67.62;101054.22;5042337;28;20033;-82
2022/05/13 08:17:45;;;;;;;37.92;7.45;;;;;;;15.69;67.67;101062.44;5026273;28;20045;-81
2022/05/13 08:20:11;;;;;;;33.45;7.20;;;;;;;16.26;66.48;101049.47;5040481;28;20032;-81
2022/05/13 08:22:37;;;;;;;37.58;7.22;;;;;;;16.42;65.04;101040.09;5038002;28;20060;-81
2022/05/13 08:25:03;;;;;;;37.22;6.47;;;;;;;16.28;65.50;101063.66;5041821;28;20033;-83
2022/05/13 08:27:28;;;;;;;31.48;6.63;;;;;;;16.27;66.41;101061.97;5061334;28;20032;-82
2022/05/13 08:29:54;;;;;;;35.13;6.75;;;;;;;16.27;66.67;101041.13;5023221;28;20501;-83
2022/05/13 08:32:19;;;;;;;28.17;8.10;;;;;;;16.39;66.46;101062.22;5037647;28;20033;-81
2022/05/13 08:34:46;;;;;;;33.72;7.57;;;;;;;16.33;66.48;101053.03;5020889;28;20041;-84
2022/05/13 08:37:11;;;;;;;41.10;7.47;;;;;;;16.50;65.35;101061.59;5041423;28;20497;-84
2022/05/13 08:39:40;;;;;;;20.25;5.75;;;;;;;16.52;64.18;101067.66;5043807;28;20029;-84
2022/05/13 08:42:21;;;;;;;35.15;7.25;;;;;;;16.55;65.10;101075.38;5030635;28;20041;-81
2022/05/13 08:44:49;;;;;;;34.15;7.18;;;;;;;16.37;63.88;101062.41;5038816;28;20037;-82
2022/05/13 08:47:27;;;;;;;29.65;7.70;;;;;;;16.37;63.77;101056.16;5046628;28;20064;-88
2022/05/13 08:49:56;;;;;;;39.75;8.57;;;;;;;16.11;64.57;101060.47;5032239;28;20123;-89
2022/05/13 08:55:17;;;;;;;36.42;7.28;;;;;;;16.69;61.14;101058.03;5057929;28;20040;-89
2022/05/13 08:57:47;;;;;;;32.20;6.82;;;;;;;18.21;57.23;101072.31;5037534;28;20036;-91
2022/05/13 09:00:21;;;;;;;45.45;8.27;;;;;;;20.91;48.03;101063.38;5032867;28;20112;-83
2022/05/13 09:02:52;;;;;;;32.33;6.90;;;;;;;19.74;48.87;101051.00;5023764;28;22267;-85
2022/05/13 09:05:40;;;;;;;34.85;7.32;;;;;;;19.41;49.12;101049.50;5049108;28;20059;-84
2022/05/13 09:08:07;;;;;;;26.65;6.70;;;;;;;19.65;47.59;101080.47;5050557;28;20430;-84
2022/05/13 09:10:51;;;;;;;32.13;6.88;;;;;;;21.24;42.96;101060.03;5030373;28;20041;-89
2022/05/13 09:13:35;;;;;;;28.92;6.78;;;;;;;22.32;40.78;101066.66;5032441;28;20497;-84
2022/05/13 09:16:03;;;;;;;34.97;7.25;;;;;;;21.98;41.85;101068.44;5054648;28;20479;-86
2022/05/13 09:18:33;;;;;;;29.88;6.80;;;;;;;20.70;44.54;101051.13;5057586;28;20025;-84
2022/05/13 09:21:13;;;;;;;30.45;6.47;;;;;;;19.72;46.79;101089.44;5047643;28;20044;-85
2022/05/13 09:23:39;;;;;;;31.50;6.68;;;;;;;19.37;48.71;101091.06;5031438;28;20030;-90
2022/05/13 09:26:13;;;;;;;32.22;6.75;;;;;;;20.63;46.44;101076.63;5053121;28;20037;-87
2022/05/13 09:29:03;;;;;;;33.85;6.75;;;;;;;20.47;47.43;101099.13;5039058;28;20151;-84
2022/05/13 09:31:32;;;;;;;27.08;6.28;;;;;;;19.56;48.85;101095.50;5029061;28;20033;-86
2022/05/13 09:33:58;;;;;;;33.38;7.28;;;;;;;20.60;45.63;101090.78;5047536;28;20041;-88
2022/05/13 09:36:24;;;;;;;29.92;6.78;;;;;;;19.32;47.83;101103.50;5049838;28;20048;-86
2022/05/13 09:38:51;;;;;;;19.23;6.28;;;;;;;21.09;44.09;101109.75;5048128;28;20029;-88
2022/05/13 09:41:29;;;;;;;28.38;5.55;;;;;;;21.45;43.04;101105.13;5031752;28;20115;-87
2022/05/13 09:44:06;;;;;;;27.92;5.95;;;;;;;20.99;43.49;101113.06;5059031;28;20033;-88
2022/05/13 09:46:36;;;;;;;24.60;6.13;;;;;;;21.26;42.87;101110.69;5020609;28;20123;-80
2022/05/13 09:49:05;;;;;;;26.40;8.27;;;;;;;21.03;43.96;101127.91;5031598;28;20052;-84
2022/05/13 09:51:37;;;;;;;28.50;6.28;;;;;;;20.64;44.96;101123.94;5014542;28;20033;-82
2022/05/13 09:54:05;;;;;;;29.50;7.45;;;;;;;20.56;45.21;101133.31;5050656;28;20074;-82
2022/05/13 09:56:36;;;;;;;22.95;6.28;;;;;;;20.02;45.44;101140.50;5043110;28;20037;-82
2022/05/13 09:59:05;;;;;;;22.58;5.82;;;;;;;19.26;46.46;101137.09;5015621;28;20048;-83
2022/05/13 10:01:31;;;;;;;36.63;6.43;;;;;;;19.30;46.40;101129.31;5017957;28;20449;-81
2022/05/13 10:04:24;;;;;;;20.77;5.30;;;;;;;18.92;48.67;101140.34;5014310;28;20124;-84
2022/05/13 10:06:50;;;;;;;18.88;4.55;;;;;;;19.52;46.91;101127.00;5038337;28;20051;-84
2022/05/13 10:15:25;;;;;;;26.92;7.53;;;;;;;21.51;42.81;101145.19;5053021;28;20033;-82
2022/05/13 10:17:56;;;;;;;14.02;5.00;;;;;;;22.03;39.91;101131.53;5017173;28;20364;-82
2022/05/13 10:20:25;;;;;;;22.15;6.00;;;;;;;23.60;38.67;101139.19;5060490;28;20040;-82
2022/05/13 10:23:24;;;;;;;20.02;5.68;;;;;;;25.22;34.20;101155.00;5035190;28;20074;-82
2022/05/13 10:25:56;;;;;;;28.40;6.75;;;;;;;24.72;34.33;101150.72;5002063;28;20037;-80
2022/05/13 10:28:33;;;;;;;27.67;6.23;;;;;;;25.50;34.89;101158.50;5039980;28;20764;-82
2022/05/13 10:31:13;;;;;;;22.63;6.32;;;;;;;26.62;32.39;101145.22;5050083;28;20037;-81
2022/05/13 10:33:57;;;;;;;19.45;4.68;;;;;;;25.96;33.13;101145.81;5026114;28;20045;-83
2022/05/13 10:36:50;;;;;;;14.73;4.03;;;;;;;24.04;35.21;101141.97;5044208;28;20429;-81
2022/05/13 10:39:19;;;;;;;20.95;5.75;;;;;;;22.94;37.41;101155.41;5027884;28;20034;-82
2022/05/13 10:41:52;;;;;;;15.68;5.32;;;;;;;23.38;37.45;101147.38;5048297;28;20041;-83
2022/05/13 10:44:27;;;;;;;20.73;4.95;;;;;;;23.32;37.42;101151.13;5016109;28;20029;-80
2022/05/13 10:46:58;;;;;;;24.90;6.22;;;;;;;24.95;34.21;101149.53;5027458;28;20032;-82
2022/05/13 10:49:39;;;;;;;15.32;4.32;;;;;;;26.04;31.88;101144.47;5033556;28;20052;-79
2022/05/13 10:52:06;;;;;;;20.83;4.95;;;;;;;23.33;35.88;101133.56;5050431;28;20036;-80
2022/05/13 10:55:13;;;;;;;22.15;7.50;;;;;;;21.20;40.05;101165.50;5025200;28;20029;-80
2022/05/13 10:57:54;;;;;;;17.88;5.25;;;;;;;23.95;35.54;101174.56;5030395;28;20036;-81
2022/05/13 11:00:26;;;;;;;22.90;5.18;;;;;;;25.27;32.98;101168.81;5049364;28;20083;-85
2022/05/13 11:03:03;;;;;;;19.90;4.70;;;;;;;25.57;32.11;101173.69;5042784;28;20033;-84
2022/05/13 11:05:59;;;;;;;21.77;5.05;;;;;;;23.09;36.60;101174.09;5047399;28;20083;-88
2022/05/13 11:08:36;;;;;;;23.95;7.10;;;;;;;24.12;34.95;101163.50;5045133;28;20036;-87
2022/05/13 11:11:41;;;;;;;17.83;4.97;;;;;;;25.63;32.84;101166.28;5040255;28;20025;-85
2022/05/13 11:14:39;;;;;;;17.20;5.13;;;;;;;25.88;31.90;101177.47;5033215;28;20086;-89
2022/05/13 11:17:31;;;;;;;24.40;5.53;;;;;;;25.95;32.71;101173.63;5036018;28;20029;-83
2022/05/13 11:20:06;;;;;;;18.90;5.07;;;;;;;25.96;31.38;101169.75;5056468;28;20041;-83
2022/05/13 11:22:44;;;;;;;21.15;5.80;;;;;;;25.26;32.30;101186.41;5083989;28;20044;-83
2022/05/13 11:28:26;;;;;;;18.85;5.15;;;;;;;23.90;35.47;101188.22;5068672;28;20032;-83
2022/05/13 11:30:58;;;;;;;23.70;5.65;;;;;;;24.55;35.12;101192.03;5080345;28;20055;-84
2022/05/13 11:33:31;;;;;;;18.67;5.88;;;;;;;23.90;35.32;101180.81;5057121;28;20028;-87
2022/05/13 11:36:02;;;;;;;24.10;4.93;;;;;;;23.61;35.90;101187.53;5044211;28;20029;-80
2022/05/13 11:38:37;;;;;;;18.88;5.40;;;;;;;24.33;34.95;101192.06;5056616;28;20091;-81
2022/05/13 11:41:10;;;;;;;18.77;4.82;;;;;;;24.64;34.93;101179.50;5059074;28;20044;-81
2022/05/13 11:43:39;;;;;;;24.83;5.78;;;;;;;25.59;32.85;101198.19;5056739;28;20514;-83
2022/05/13 11:46:16;;;;;;;21.13;5.97;;;;;;;26.03;30.85;101148.31;5051635;28;20072;-85
2022/05/13 11:48:44;;;;;;;20.13;5.40;;;;;;;26.09;31.58;101191.31;5032376;28;20040;-89
2022/05/13 11:51:15;;;;;;;21.50;7.00;;;;;;;27.18;31.86;101183.06;5026648;28;20186;-83
2022/05/13 11:53:41;;;;;;;23.42;5.60;;;;;;;27.76;29.78;101179.88;5039137;28;20024;-85
2022/05/13 11:56:31;;;;;;;14.48;5.25;;;;;;;27.77;31.07;101198.13;5046502;28;20706;-86